createdAt,value
2019-02-07T00:00:23.430Z,75.00
2019-02-07T00:02:54.859Z,74.80
2019-02-07T00:05:25.832Z,74.50
2019-02-07T00:07:55.823Z,74.20
2019-02-07T00:10:25.856Z,73.90
2019-02-07T00:12:56.337Z,74.00
2019-02-07T00:15:26.367Z,74.00
2019-02-07T00:17:57.554Z,73.60
2019-02-07T00:20:27.595Z,74.40
2019-02-07T00:22:57.563Z,73.70
2019-02-07T00:25:27.671Z,72.90
2019-02-07T00:27:59.674Z,72.80
2019-02-07T00:30:29.723Z,71.90
2019-02-07T00:32:59.617Z,72.30
2019-02-07T00:35:29.609Z,71.90
2019-02-07T00:37:59.515Z,71.60
2019-02-07T00:40:29.908Z,71.70
2019-02-07T00:42:59.818Z,71.80
2019-02-07T00:45:29.880Z,71.30
2019-02-07T00:47:59.716Z,71.10
2019-02-07T00:50:31.135Z,71.70
2019-02-07T00:53:01.235Z,71.30
2019-02-07T00:55:31.253Z,71.50
2019-02-07T00:58:01.169Z,71.50
2019-02-07T01:00:31.717Z,71.10
2019-02-07T01:03:01.623Z,70.90
2019-02-07T01:05:31.730Z,70.00
2019-02-07T01:08:02.028Z,69.90
2019-02-07T01:10:32.426Z,70.00
2019-02-07T01:13:02.300Z,68.80
2019-02-07T01:15:32.322Z,69.00
2019-02-07T01:18:02.222Z,68.40
2019-02-07T01:20:32.222Z,68.70
2019-02-07T01:23:02.123Z,68.20
2019-02-07T01:25:32.125Z,68.00
2019-02-07T01:28:02.031Z,66.80
2019-02-07T01:30:32.060Z,67.50
2019-02-07T01:33:02.055Z,67.90
2019-02-07T01:35:32.051Z,67.40
2019-02-07T01:38:02.139Z,67.40
2019-02-07T01:40:32.044Z,66.70
2019-02-07T01:43:02.150Z,66.90
2019-02-07T01:45:32.039Z,67.20
2019-02-07T01:48:01.997Z,66.60
2019-02-07T01:50:32.400Z,65.70
2019-02-07T01:53:02.325Z,65.90
2019-02-07T01:55:32.236Z,66.20
2019-02-07T01:58:02.218Z,66.30
2019-02-07T02:00:32.109Z,66.40
2019-02-07T02:03:02.069Z,66.40
2019-02-07T02:05:32.332Z,65.70
2019-02-07T02:08:02.330Z,66.20
2019-02-07T02:10:32.347Z,66.40
2019-02-07T02:13:02.315Z,66.30
2019-02-07T02:15:32.429Z,66.40
2019-02-07T02:18:02.405Z,66.60
2019-02-07T02:20:32.563Z,66.10
2019-02-07T02:23:02.548Z,66.00
2019-02-07T02:25:33.668Z,65.40
2019-02-07T02:28:05.727Z,66.00
2019-02-07T02:30:36.406Z,65.60
2019-02-07T02:33:06.564Z,65.60
2019-02-07T02:35:36.556Z,65.70
2019-02-07T02:38:06.435Z,66.10
2019-02-07T02:40:36.417Z,65.60
2019-02-07T02:43:06.340Z,66.00
2019-02-07T02:45:37.898Z,65.50
2019-02-07T02:48:07.972Z,65.70
2019-02-07T02:50:37.944Z,66.10
2019-02-07T02:53:07.840Z,65.70
2019-02-07T02:55:39.397Z,65.50
2019-02-07T02:58:09.294Z,65.00
2019-02-07T03:00:41.554Z,65.40
2019-02-07T03:03:25.332Z,65.30
2019-02-07T03:06:14.265Z,64.90
2019-02-07T03:08:48.617Z,65.10
2019-02-07T03:11:20.182Z,65.50
2019-02-07T03:13:54.668Z,66.00
2019-02-07T03:16:37.223Z,66.60
2019-02-07T03:19:31.283Z,66.30
2019-02-07T03:22:14.931Z,66.60
2019-02-07T03:24:46.740Z,67.10
2019-02-07T03:27:35.977Z,67.20
2019-02-07T03:30:10.709Z,67.80
2019-02-07T03:35:34.575Z,68.30
2019-02-07T03:38:15.147Z,68.30
2019-02-07T03:40:49.678Z,68.40
2019-02-07T03:43:33.165Z,69.30
2019-02-07T03:46:17.719Z,69.40
2019-02-07T03:48:58.219Z,69.40
2019-02-07T03:51:29.707Z,69.60
2019-02-07T03:54:10.338Z,69.60
2019-02-07T03:57:00.402Z,69.40
2019-02-07T04:02:15.359Z,69.00
2019-02-07T04:07:54.405Z,69.60
2019-02-07T04:13:36.260Z,68.60
2019-02-07T04:16:15.401Z,68.70
2019-02-07T04:18:49.473Z,68.80
2019-02-07T04:21:21.061Z,68.60
2019-02-07T04:24:08.976Z,68.80
2019-02-07T04:26:44.639Z,69.00
2019-02-07T04:29:29.421Z,69.10
2019-02-07T04:32:32.670Z,69.20
2019-02-07T04:35:10.224Z,69.10
2019-02-07T04:37:44.333Z,68.60
2019-02-07T04:40:25.113Z,68.30
2019-02-07T04:43:02.317Z,68.40
2019-02-07T04:45:50.265Z,68.00
2019-02-07T04:48:28.103Z,68.20
2019-02-07T04:51:02.562Z,68.30
2019-02-07T04:53:34.132Z,68.30
2019-02-07T04:56:23.187Z,68.20
2019-02-07T04:58:54.741Z,68.60
2019-02-07T05:01:26.222Z,68.50
2019-02-07T05:04:00.796Z,68.70
2019-02-07T05:07:00.863Z,68.60
2019-02-07T05:09:41.050Z,68.70
2019-02-07T05:12:15.558Z,69.00
2019-02-07T05:14:55.688Z,69.30
2019-02-07T05:17:41.585Z,69.60
2019-02-07T05:20:13.185Z,69.60
2019-02-07T05:22:50.691Z,69.90
2019-02-07T05:25:28.379Z,70.20
2019-02-07T05:28:03.963Z,69.90
2019-02-07T05:30:35.522Z,70.50
2019-02-07T05:33:16.036Z,70.90
2019-02-07T05:36:03.784Z,70.00
2019-02-07T05:38:38.070Z,70.10
2019-02-07T05:41:12.642Z,69.80
2019-02-07T05:44:00.922Z,70.20
2019-02-07T05:46:51.151Z,70.60
2019-02-07T05:49:18.587Z,70.70
2019-02-07T05:51:58.941Z,70.90
2019-02-07T05:54:45.765Z,70.50
2019-02-07T06:00:25.909Z,70.50
2019-02-07T06:03:25.705Z,70.70
2019-02-07T06:06:04.131Z,70.30
2019-02-07T06:08:45.056Z,70.50
2019-02-07T06:11:28.838Z,69.50
2019-02-07T06:14:06.617Z,71.00
2019-02-07T06:17:02.014Z,70.60
2019-02-07T06:19:36.733Z,70.60
2019-02-07T06:22:20.376Z,71.50
2019-02-07T06:25:04.227Z,71.10
2019-02-07T06:27:53.282Z,71.20
2019-02-07T06:30:43.251Z,71.50
2019-02-07T06:33:14.718Z,71.40
2019-02-07T06:35:46.434Z,70.40
2019-02-07T06:38:20.751Z,70.40
2019-02-07T06:40:55.331Z,70.60
2019-02-07T06:43:36.304Z,70.00
2019-02-07T06:46:25.444Z,68.90
2019-02-07T06:49:13.285Z,68.20
2019-02-07T06:51:50.729Z,66.90
2019-02-07T06:54:38.459Z,65.50
2019-02-07T06:57:27.888Z,64.20
2019-02-07T07:00:06.257Z,62.40
2019-02-07T07:02:37.848Z,61.00
2019-02-07T07:05:39.911Z,59.10
2019-02-07T07:08:11.519Z,57.90
2019-02-07T07:10:48.779Z,56.10
2019-02-07T07:13:29.876Z,53.80
2019-02-07T07:16:05.436Z,50.90
2019-02-07T07:18:55.566Z,48.80
2019-02-07T07:21:43.673Z,46.20
2019-02-07T07:24:24.238Z,42.40
2019-02-07T07:27:09.523Z,41.10
2019-02-07T07:29:44.531Z,39.20
2019-02-07T07:32:33.123Z,37.20
2019-02-07T07:35:25.587Z,35.90
2019-02-07T07:38:00.278Z,33.60
2019-02-07T07:40:32.401Z,34.00
2019-02-07T07:43:07.587Z,32.40
2019-02-07T07:45:45.699Z,30.90
2019-02-07T07:48:26.898Z,29.70
2019-02-07T07:51:02.386Z,30.00
2019-02-07T07:53:50.714Z,28.20
2019-02-07T07:56:42.087Z,28.00
2019-02-07T07:59:17.319Z,27.60
2019-02-07T08:01:52.458Z,27.50
2019-02-07T08:04:27.280Z,28.30
2019-02-07T08:07:05.208Z,29.00
2019-02-07T08:09:37.245Z,29.60
2019-02-07T08:12:15.322Z,30.30
2019-02-07T08:14:56.649Z,30.90
2019-02-07T08:17:47.658Z,32.80
2019-02-07T08:20:33.345Z,35.70
2019-02-07T08:23:08.549Z,37.00
2019-02-07T08:25:57.453Z,36.10
2019-02-07T08:28:41.565Z,36.50
2019-02-07T08:31:29.195Z,37.50
2019-02-07T08:34:17.751Z,36.50
2019-02-07T08:36:50.920Z,36.50
2019-02-07T08:39:32.225Z,34.10
2019-02-07T08:42:10.468Z,32.40
2019-02-07T08:44:48.682Z,29.80
2019-02-07T08:47:31.053Z,26.70
2019-02-07T08:50:03.163Z,26.30
2019-02-07T08:52:35.256Z,25.90
2019-02-07T08:57:57.182Z,23.10
2019-02-07T09:00:44.730Z,23.80
2019-02-07T09:03:23.383Z,22.30
2019-02-07T09:05:58.749Z,22.30
2019-02-07T09:08:30.829Z,23.00
2019-02-07T09:11:12.039Z,22.20
2019-02-07T09:13:56.302Z,21.40
2019-02-07T09:16:29.524Z,21.50
2019-02-07T09:19:07.389Z,22.00
2019-02-07T09:21:48.524Z,23.00
2019-02-07T09:24:38.692Z,22.20
2019-02-07T09:27:29.858Z,22.50
2019-02-07T09:30:05.003Z,22.70
2019-02-07T09:32:37.168Z,23.20
2019-02-07T09:35:12.258Z,23.70
2019-02-07T09:37:58.692Z,22.90
2019-02-07T09:40:36.675Z,22.60
2019-02-07T09:43:08.847Z,22.70
2019-02-07T09:45:44.117Z,22.90
2019-02-07T09:48:22.096Z,23.10
2019-02-07T09:50:57.210Z,23.40
2019-02-07T09:53:29.349Z,23.10
2019-02-07T09:56:21.521Z,23.00
2019-02-07T09:58:53.695Z,22.80
2019-02-07T10:01:25.833Z,23.10
2019-02-07T10:03:58.043Z,23.50
2019-02-07T10:06:41.556Z,23.60
2019-02-07T10:09:25.505Z,24.00
2019-02-07T10:12:06.504Z,23.50
2019-02-07T10:14:54.578Z,24.70
2019-02-07T10:17:39.829Z,25.40
2019-02-07T10:20:28.712Z,26.60
2019-02-07T10:23:03.822Z,28.30
2019-02-07T10:25:51.541Z,30.80
2019-02-07T10:28:23.649Z,33.80
2019-02-07T10:30:55.761Z,35.50
2019-02-07T10:33:27.838Z,37.30
2019-02-07T10:36:02.060Z,38.30
2019-02-07T10:38:43.582Z,39.60
2019-02-07T10:41:34.237Z,41.20
2019-02-07T10:44:09.539Z,43.20
2019-02-07T10:46:47.917Z,44.50
2019-02-07T10:49:22.844Z,44.50
2019-02-07T10:52:11.405Z,44.60
2019-02-07T10:54:52.500Z,44.80
2019-02-07T10:57:25.658Z,45.40
2019-02-07T11:00:07.171Z,46.60
2019-02-07T11:02:39.912Z,47.80
2019-02-07T11:05:13.674Z,48.10
2019-02-07T11:08:05.932Z,48.70
2019-02-07T11:10:37.411Z,48.30
2019-02-07T11:13:11.717Z,49.30
2019-02-07T11:15:43.186Z,49.10
2019-02-07T11:18:20.911Z,50.30
2019-02-07T11:20:52.399Z,51.10
2019-02-07T11:23:26.549Z,50.70
2019-02-07T11:26:15.708Z,50.60
2019-02-07T11:29:03.950Z,50.40
2019-02-07T11:31:42.036Z,49.70
2019-02-07T11:34:19.373Z,49.80
2019-02-07T11:36:59.065Z,51.30
2019-02-07T11:39:33.381Z,51.40
2019-02-07T11:42:14.138Z,51.60
2019-02-07T11:44:45.796Z,51.60
2019-02-07T11:47:33.644Z,51.60
2019-02-07T11:50:23.922Z,51.90
2019-02-07T11:53:01.479Z,51.40
2019-02-07T11:55:51.434Z,51.30
2019-02-07T11:58:22.977Z,51.60
2019-02-07T12:01:11.256Z,52.60
2019-02-07T12:06:55.954Z,51.10
2019-02-07T12:09:42.748Z,52.50
2019-02-07T12:12:14.901Z,52.60
2019-02-07T12:14:47.351Z,50.90
2019-02-07T12:17:23.090Z,50.50
2019-02-07T12:20:11.277Z,50.00
2019-02-07T12:22:43.990Z,50.50
2019-02-07T12:25:32.297Z,51.00
2019-02-07T12:28:10.581Z,50.80
2019-02-07T12:30:50.899Z,51.70
2019-02-07T12:33:25.799Z,51.90
2019-02-07T12:36:02.429Z,51.00
2019-02-07T12:38:52.685Z,50.80
2019-02-07T12:41:27.210Z,51.20
2019-02-07T12:43:59.348Z,50.80
2019-02-07T12:46:32.545Z,50.30
2019-02-07T12:49:16.327Z,50.90
2019-02-07T12:51:51.388Z,51.60
2019-02-07T12:54:23.556Z,51.20
2019-02-07T12:57:07.908Z,50.40
2019-02-07T12:59:57.034Z,50.30
2019-02-07T13:02:45.951Z,50.10
2019-02-07T13:05:33.696Z,49.20
2019-02-07T13:08:08.193Z,49.10
2019-02-07T13:10:56.362Z,49.50
2019-02-07T13:13:28.432Z,49.90
2019-02-07T13:16:17.829Z,50.40
2019-02-07T13:18:55.176Z,49.50
2019-02-07T13:21:42.438Z,49.70
2019-02-07T13:24:14.565Z,49.70
2019-02-07T13:27:05.723Z,50.00
2019-02-07T13:29:37.808Z,50.50
2019-02-07T13:32:09.910Z,49.40
2019-02-07T13:34:42.034Z,49.10
2019-02-07T13:37:15.239Z,49.10
2019-02-07T13:39:47.556Z,49.00
2019-02-07T13:42:28.791Z,48.60
2019-02-07T13:45:17.377Z,49.10
2019-02-07T13:48:05.805Z,48.80
2019-02-07T13:50:54.391Z,48.80
2019-02-07T13:53:29.712Z,48.40
2019-02-07T13:56:06.298Z,49.20
2019-02-07T13:58:56.683Z,49.80
2019-02-07T14:01:45.388Z,50.00
2019-02-07T14:04:35.713Z,50.10
2019-02-07T14:07:08.209Z,50.00
2019-02-07T14:09:40.334Z,49.40
2019-02-07T14:12:11.819Z,50.50
2019-02-07T14:14:59.407Z,51.00
2019-02-07T14:17:36.155Z,51.60
2019-02-07T14:20:23.154Z,52.10
2019-02-07T14:23:10.091Z,52.10
2019-02-07T14:28:29.375Z,51.60
2019-02-07T14:31:13.355Z,51.70
2019-02-07T14:34:01.193Z,51.30
2019-02-07T14:36:40.008Z,51.30
2019-02-07T14:39:25.262Z,51.80
2019-02-07T14:41:56.850Z,52.10
2019-02-07T14:44:45.003Z,52.10
2019-02-07T14:47:16.091Z,52.70
2019-02-07T14:49:46.573Z,53.40
2019-02-07T14:52:16.588Z,53.70
2019-02-07T14:54:46.483Z,54.10
2019-02-07T14:57:17.557Z,54.10
2019-02-07T14:59:51.353Z,54.10
2019-02-07T15:02:22.219Z,54.40
2019-02-07T15:04:52.264Z,54.70
2019-02-07T15:07:25.213Z,55.20
2019-02-07T15:09:55.199Z,55.60
2019-02-07T15:12:25.107Z,55.60
2019-02-07T15:14:55.514Z,55.70
2019-02-07T15:17:26.446Z,55.20
2019-02-07T15:19:56.448Z,55.70
2019-02-07T15:22:26.348Z,56.40
2019-02-07T15:24:56.353Z,56.10
2019-02-07T15:27:26.354Z,56.00
2019-02-07T15:29:56.664Z,56.70
2019-02-07T15:32:26.864Z,56.90
2019-02-07T15:34:56.906Z,57.10
2019-02-07T15:37:31.527Z,57.50
2019-02-07T15:40:01.531Z,57.80
2019-02-07T15:42:32.930Z,58.10
2019-02-07T15:45:02.925Z,58.70
2019-02-07T15:47:36.390Z,59.10
2019-02-07T15:50:09.513Z,59.60
2019-02-07T15:52:42.174Z,60.30
2019-02-07T15:55:12.473Z,60.50
2019-02-07T15:57:45.799Z,60.70
2019-02-07T16:00:34.364Z,61.30
2019-02-07T16:03:06.624Z,61.50
2019-02-07T16:05:36.769Z,61.30
2019-02-07T16:08:06.676Z,61.60
2019-02-07T16:10:36.669Z,61.90
2019-02-07T16:13:06.570Z,62.10
2019-02-07T16:15:36.580Z,62.60
2019-02-07T16:18:06.486Z,62.50
2019-02-07T16:20:36.489Z,62.00
2019-02-07T16:23:06.954Z,61.70
2019-02-07T16:25:36.961Z,62.10
2019-02-07T16:28:06.959Z,62.50
2019-02-07T16:30:36.962Z,63.40
2019-02-07T16:33:07.266Z,63.80
2019-02-07T16:35:38.217Z,64.30
2019-02-07T16:38:08.450Z,64.50
2019-02-07T16:40:38.457Z,64.40
2019-02-07T16:43:08.354Z,64.60
2019-02-07T16:45:38.369Z,65.00
2019-02-07T16:48:08.361Z,65.20
2019-02-07T16:50:38.376Z,65.40
2019-02-07T16:53:08.389Z,65.50
2019-02-07T16:55:38.400Z,65.60
2019-02-07T16:58:08.288Z,65.90
2019-02-07T17:00:38.786Z,65.80
2019-02-07T17:03:08.781Z,65.60
2019-02-07T17:05:39.416Z,65.50
2019-02-07T17:08:09.293Z,64.90
2019-02-07T17:10:40.789Z,65.20
2019-02-07T17:13:12.080Z,65.40
2019-02-07T17:15:42.102Z,65.50
2019-02-07T17:18:11.982Z,66.00
2019-02-07T17:20:41.986Z,66.10
2019-02-07T17:23:11.894Z,65.60
2019-02-07T17:25:41.985Z,66.20
2019-02-07T17:28:12.200Z,66.40
2019-02-07T17:30:42.210Z,66.10
2019-02-07T17:33:12.121Z,66.50
2019-02-07T17:35:43.187Z,66.80
2019-02-07T17:38:13.259Z,66.60
2019-02-07T17:40:44.276Z,66.60
2019-02-07T17:43:14.626Z,67.00
2019-02-07T17:45:44.903Z,66.90
2019-02-07T17:48:14.994Z,66.00
2019-02-07T17:50:45.146Z,66.10
2019-02-07T17:53:16.037Z,66.10
2019-02-07T17:56:09.244Z,66.00
2019-02-07T17:58:39.523Z,66.60
2019-02-07T18:01:12.568Z,67.40
2019-02-07T18:03:42.564Z,67.50
2019-02-07T18:06:13.945Z,67.00
2019-02-07T18:08:43.951Z,66.50
2019-02-07T18:11:13.936Z,66.30
2019-02-07T18:13:43.833Z,66.10
2019-02-07T18:16:17.714Z,66.60
2019-02-07T18:18:47.627Z,66.50
2019-02-07T18:21:17.749Z,66.40
2019-02-07T18:23:47.643Z,66.60
2019-02-07T18:26:18.787Z,66.90
2019-02-07T18:28:48.682Z,67.00
2019-02-07T18:31:18.693Z,66.80
2019-02-07T18:33:48.585Z,66.70
2019-02-07T18:36:20.784Z,67.10
2019-02-07T18:38:50.697Z,67.00
2019-02-07T18:41:33.235Z,66.90
2019-02-07T18:44:05.592Z,66.70
2019-02-07T18:46:35.655Z,67.00
2019-02-07T18:49:05.548Z,66.70
2019-02-07T18:51:45.216Z,66.90
2019-02-07T18:54:06.968Z,67.20
2019-02-07T18:56:38.042Z,67.30
2019-02-07T18:59:08.335Z,67.30
2019-02-07T19:01:38.686Z,67.60
2019-02-07T19:04:10.669Z,67.90
2019-02-07T19:09:46.393Z,67.80
2019-02-07T19:12:16.922Z,68.40
2019-02-07T19:14:47.143Z,68.40
2019-02-07T19:17:26.060Z,68.30
2019-02-07T19:19:56.626Z,68.70
2019-02-07T19:22:27.064Z,68.90
2019-02-07T19:24:57.421Z,69.20
2019-02-07T19:27:28.998Z,69.70
2019-02-07T19:29:59.371Z,69.40
2019-02-07T19:32:29.779Z,69.40
2019-02-07T19:35:00.036Z,69.60
2019-02-07T19:37:36.330Z,69.80
2019-02-07T19:40:12.288Z,69.70
2019-02-07T19:42:45.160Z,70.10
2019-02-07T19:45:39.634Z,70.30
2019-02-07T19:48:10.131Z,70.70
2019-02-07T19:50:40.435Z,71.30
2019-02-07T19:53:10.867Z,71.40
2019-02-07T19:55:41.639Z,71.50
2019-02-07T19:58:12.192Z,71.50
2019-02-07T20:00:42.735Z,71.90
2019-02-07T20:03:22.843Z,71.90
2019-02-07T20:05:53.353Z,71.70
2019-02-07T20:08:23.824Z,72.50
2019-02-07T20:10:53.951Z,71.80
2019-02-07T20:13:24.310Z,71.80
2019-02-07T20:15:54.507Z,71.90
2019-02-07T20:18:24.924Z,72.20
2019-02-07T20:20:55.798Z,72.20
2019-02-07T20:23:26.032Z,72.20
2019-02-07T20:25:57.250Z,72.40
2019-02-07T20:28:27.390Z,72.60
2019-02-07T20:30:58.800Z,72.50
2019-02-07T20:33:28.932Z,72.10
2019-02-07T20:36:01.098Z,72.30
2019-02-07T20:38:31.390Z,72.10
2019-02-07T20:41:01.424Z,73.00
2019-02-07T20:43:32.858Z,73.20
2019-02-07T20:46:03.754Z,73.20
2019-02-07T20:48:34.218Z,73.00
2019-02-07T20:51:04.484Z,73.10
2019-02-07T20:53:34.827Z,73.40
2019-02-07T20:56:07.968Z,73.40
2019-02-07T20:58:59.697Z,73.60
2019-02-07T21:01:29.646Z,73.90
2019-02-07T21:04:00.029Z,74.00
2019-02-07T21:06:30.654Z,74.00
2019-02-07T21:09:01.203Z,73.90
2019-02-07T21:11:34.759Z,73.80
2019-02-07T21:14:05.369Z,73.90
2019-02-07T21:16:36.620Z,74.00
2019-02-07T21:19:06.619Z,74.00
2019-02-07T21:21:36.631Z,73.80
2019-02-07T21:24:06.643Z,73.80
2019-02-07T21:26:39.797Z,74.00
2019-02-07T21:29:10.223Z,73.60
2019-02-07T21:31:40.630Z,73.80
2019-02-07T21:34:10.744Z,74.20
2019-02-07T21:36:47.642Z,74.20
2019-02-07T21:39:17.791Z,74.40
2019-02-07T21:41:47.807Z,74.30
2019-02-07T21:44:19.135Z,75.00
2019-02-07T21:46:51.281Z,76.10
2019-02-07T21:49:21.389Z,75.30
2019-02-07T21:51:51.506Z,75.30
2019-02-07T21:54:21.496Z,75.30
2019-02-07T21:56:52.640Z,75.50
2019-02-07T21:59:23.082Z,75.70
2019-02-07T22:01:53.163Z,75.90
2019-02-07T22:04:23.299Z,76.30
2019-02-07T22:06:55.337Z,76.10
2019-02-07T22:09:25.559Z,76.10
2019-02-07T22:11:55.559Z,76.40
2019-02-07T22:14:25.659Z,76.50
2019-02-07T22:16:56.729Z,76.40
2019-02-07T22:19:26.809Z,76.50
2019-02-07T22:21:56.738Z,76.40
2019-02-07T22:24:29.149Z,76.40
2019-02-07T22:27:00.484Z,76.50
2019-02-07T22:29:30.463Z,76.60
2019-02-07T22:32:00.362Z,76.60
2019-02-07T22:34:30.365Z,76.70
2019-02-07T22:37:01.391Z,76.80
2019-02-07T22:39:31.527Z,76.90
2019-02-07T22:42:01.631Z,77.10
2019-02-07T22:44:32.741Z,77.30
2019-02-07T22:47:05.418Z,77.30
2019-02-07T22:49:35.411Z,77.20
2019-02-07T22:52:05.319Z,77.40
2019-02-07T22:54:35.312Z,77.60
2019-02-07T22:57:06.251Z,77.60
2019-02-07T23:02:42.735Z,77.70
2019-02-07T23:05:12.742Z,77.90
2019-02-07T23:07:43.679Z,77.60
2019-02-07T23:10:13.727Z,77.40
2019-02-07T23:12:43.626Z,78.10
2019-02-07T23:15:13.614Z,77.30
2019-02-07T23:17:44.587Z,77.00
2019-02-07T23:20:14.801Z,76.80
2019-02-07T23:22:44.689Z,76.70
2019-02-07T23:25:14.720Z,76.60
2019-02-07T23:27:45.687Z,76.50
2019-02-07T23:30:18.257Z,76.70
2019-02-07T23:32:48.151Z,76.60
2019-02-07T23:35:18.170Z,76.20
2019-02-07T23:37:49.121Z,75.90
2019-02-07T23:40:21.466Z,75.90
2019-02-07T23:42:51.371Z,75.80
2019-02-07T23:45:25.546Z,75.80
2019-02-07T23:47:57.507Z,75.80
2019-02-07T23:50:27.510Z,76.00
2019-02-07T23:52:57.431Z,76.10
2019-02-07T23:55:27.433Z,75.90
2019-02-07T23:57:58.698Z,76.50
